Terminal Aerodrome Forecast
Issued by NWS

Home | Current Version | Previous Version | Text Only | Print | Product List | Glossary Off
Versions: 1 2 3 4 5 6 7 8 9 10 11 12 13 14 15 16 17 18 19 20 21 22

044
FTUS41 KGYX 262320
TAFRKD
TAF
KRKD 262320Z 2700/2724 19007KT P6SM OVC100
     FM270800 13005KT 5SM -RASNPL BR BKN025 OVC050
     FM271300 11011KT 2SM -RADZ BR OVC015
     FM271800 09005KT 1SM -RADZ BR OVC004
      AMD LTD TO CLD VIS AND WIND=

USA.gov is the U.S. government's official web portal to all federal, state and local government web resources and services.